TimeCDT,TemperatureF,Dew PointF,Humidity,Sea Level PressureIn,VisibilityMPH,Wind Direction,Wind SpeedMPH,Gust SpeedMPH,PrecipitationIn,Events,Conditions,WindDirDegrees,DateUTC
12:15 AM,81.7,72.7,74,29.96,10.0,SE,9.2,-,N/A,,Clear,140,2013-08-03 05:15:00
12:35 AM,81.3,72.5,74,29.96,10.0,SE,6.9,-,N/A,,Clear,140,2013-08-03 05:35:00
12:55 AM,81.0,72.1,74,29.97,10.0,SE,9.2,-,N/A,,Clear,140,2013-08-03 05:55:00
1:15 AM,81.0,70.9,71,29.97,10.0,SE,6.9,-,N/A,,Clear,140,2013-08-03 06:15:00
1:35 AM,80.6,70.7,72,29.96,10.0,SE,8.1,-,N/A,,Clear,140,2013-08-03 06:35:00
1:55 AM,80.2,70.7,73,29.97,10.0,SSE,6.9,-,N/A,,Clear,150,2013-08-03 06:55:00
2:15 AM,79.9,70.3,73,29.96,10.0,SSE,6.9,-,N/A,,Clear,150,2013-08-03 07:15:00
2:35 AM,79.7,70.0,72,29.96,10.0,SSE,5.8,-,N/A,,Clear,160,2013-08-03 07:35:00
2:55 AM,79.3,70.0,73,29.96,10.0,SSE,6.9,-,N/A,,Clear,160,2013-08-03 07:55:00
3:15 AM,78.8,70.0,74,29.95,10.0,SSE,6.9,-,N/A,,Clear,160,2013-08-03 08:15:00
3:35 AM,78.4,70.0,75,29.95,10.0,SSE,4.6,-,N/A,,Clear,160,2013-08-03 08:35:00
3:55 AM,78.1,69.8,76,29.95,7.0,SSE,3.5,-,N/A,,Clear,160,2013-08-03 08:55:00
4:15 AM,77.9,69.8,76,29.95,10.0,SSE,3.5,-,N/A,,Clear,160,2013-08-03 09:15:00
4:35 AM,77.4,69.6,77,29.94,10.0,Calm,Calm,-,N/A,,Clear,0,2013-08-03 09:35:00
4:55 AM,77.0,69.4,77,29.94,10.0,South,3.5,-,N/A,,Scattered Clouds,180,2013-08-03 09:55:00
5:15 AM,77.5,69.8,77,29.93,10.0,South,3.5,-,N/A,,Mostly Cloudy,170,2013-08-03 10:15:00
5:35 AM,78.1,70.0,76,29.94,10.0,South,3.5,-,N/A,,Overcast,180,2013-08-03 10:35:00
5:55 AM,78.6,69.8,74,29.94,10.0,SSE,3.5,-,N/A,,Mostly Cloudy,160,2013-08-03 10:55:00
6:15 AM,78.3,69.8,75,29.95,10.0,Calm,Calm,-,N/A,,Mostly Cloudy,0,2013-08-03 11:15:00
6:35 AM,78.3,69.8,75,29.95,10.0,Calm,Calm,-,N/A,,Mostly Cloudy,0,2013-08-03 11:35:00
6:55 AM,78.3,69.8,75,29.96,10.0,Calm,Calm,-,N/A,,Overcast,0,2013-08-03 11:55:00
7:15 AM,78.3,70.0,76,29.96,10.0,Calm,Calm,-,N/A,,Mostly Cloudy,0,2013-08-03 12:15:00
7:35 AM,78.8,70.2,75,29.97,7.0,ESE,3.5,-,N/A,,Scattered Clouds,120,2013-08-03 12:35:00
7:55 AM,80.6,70.7,72,29.97,10.0,ESE,3.5,-,N/A,,Scattered Clouds,120,2013-08-03 12:55:00
8:15 AM,81.5,70.7,70,29.98,10.0,South,5.8,-,N/A,,Scattered Clouds,170,2013-08-03 13:15:00
8:35 AM,82.6,70.2,66,29.98,7.0,South,5.8,-,N/A,,Clear,180,2013-08-03 13:35:00
8:55 AM,84.4,69.3,60,29.98,7.0,South,8.1,-,N/A,,Clear,170,2013-08-03 13:55:00
9:15 AM,85.8,70.0,59,29.98,10.0,South,9.2,-,N/A,,Clear,180,2013-08-03 14:15:00
9:35 AM,86.2,70.3,59,29.98,10.0,SSE,9.2,-,N/A,,Clear,160,2013-08-03 14:35:00
9:55 AM,88.2,70.5,56,29.97,7.0,South,12.7,-,N/A,,Clear,170,2013-08-03 14:55:00
10:15 AM,89.6,70.0,52,29.97,10.0,SSE,11.5,-,N/A,,Scattered Clouds,160,2013-08-03 15:15:00
10:35 AM,90.9,69.3,49,29.97,10.0,South,11.5,17.3,N/A,,Clear,180,2013-08-03 15:35:00
10:55 AM,91.9,68.5,46,29.97,10.0,South,11.5,18.4,N/A,,Clear,170,2013-08-03 15:55:00
11:15 AM,92.5,67.8,44,29.97,10.0,SE,15.0,18.4,N/A,,Clear,140,2013-08-03 16:15:00
11:35 AM,94.1,66.4,40,29.97,10.0,South,12.7,19.6,N/A,,Clear,170,2013-08-03 16:35:00
11:55 AM,94.1,66.2,40,29.97,10.0,SSE,10.4,17.3,N/A,,Clear,150,2013-08-03 16:55:00
12:15 PM,95.5,65.3,37,29.97,10.0,South,13.8,19.6,N/A,,Scattered Clouds,170,2013-08-03 17:15:00
12:35 PM,95.7,66.2,38,29.96,10.0,SSE,8.1,20.7,N/A,,Clear,150,2013-08-03 17:35:00
12:55 PM,96.8,65.5,36,29.96,10.0,SSE,13.8,20.7,N/A,,Scattered Clouds,150,2013-08-03 17:55:00
1:15 PM,98.1,64.6,33,29.96,10.0,SSE,11.5,21.9,N/A,,Scattered Clouds,160,2013-08-03 18:15:00
1:35 PM,97.7,64.8,34,29.95,10.0,SE,13.8,25.3,N/A,,Scattered Clouds,140,2013-08-03 18:35:00
1:55 PM,99.3,64.6,32,29.95,10.0,SE,10.4,19.6,N/A,,Scattered Clouds,140,2013-08-03 18:55:00
2:15 PM,99.7,65.1,32,29.95,10.0,SE,11.5,19.6,N/A,,Scattered Clouds,140,2013-08-03 19:15:00
2:35 PM,99.5,63.5,31,29.94,10.0,SSE,15.0,21.9,N/A,,Scattered Clouds,160,2013-08-03 19:35:00
2:55 PM,99.9,63.9,31,29.93,10.0,SSW,8.1,21.9,N/A,,Scattered Clouds,200,2013-08-03 19:55:00
3:15 PM,99.0,64.8,32,29.92,10.0,SSE,10.4,-,N/A,,Mostly Cloudy,160,2013-08-03 20:15:00
3:35 PM,98.1,64.8,33,29.92,10.0,South,15.0,20.7,N/A,,Scattered Clouds,170,2013-08-03 20:35:00
3:55 PM,100.0,65.1,32,29.91,10.0,SSE,17.3,26.5,N/A,,Scattered Clouds,160,2013-08-03 20:55:00
4:15 PM,100.4,64.4,31,29.91,10.0,SE,12.7,20.7,N/A,,Scattered Clouds,140,2013-08-03 21:15:00
4:35 PM,99.5,64.6,32,29.91,10.0,SSE,13.8,24.2,N/A,,Scattered Clouds,160,2013-08-03 21:35:00
4:55 PM,99.7,64.4,31,29.91,10.0,SE,13.8,21.9,N/A,,Scattered Clouds,130,2013-08-03 21:55:00
5:15 PM,97.0,65.7,36,29.91,10.0,SE,13.8,21.9,N/A,,Scattered Clouds,140,2013-08-03 22:15:00
5:35 PM,97.5,64.9,34,29.91,10.0,SSE,17.3,25.3,N/A,,Clear,150,2013-08-03 22:35:00
5:55 PM,97.3,66.2,36,29.90,10.0,SE,13.8,19.6,N/A,,Scattered Clouds,130,2013-08-03 22:55:00
6:15 PM,95.7,67.3,39,29.90,10.0,SE,16.1,23.0,N/A,,Scattered Clouds,130,2013-08-03 23:15:00
6:35 PM,95.0,68.2,41,29.90,10.0,SE,15.0,20.7,N/A,,Clear,130,2013-08-03 23:35:00
6:55 PM,94.1,68.4,43,29.91,10.0,SE,13.8,21.9,N/A,,Clear,140,2013-08-03 23:55:00
7:15 PM,93.4,67.3,42,29.91,10.0,SE,15.0,18.4,N/A,,Clear,140,2013-08-04 00:15:00
7:35 PM,91.9,68.4,46,29.92,10.0,SE,11.5,19.6,N/A,,Clear,130,2013-08-04 00:35:00
7:55 PM,90.5,68.4,48,29.92,10.0,SE,10.4,20.7,N/A,,Clear,130,2013-08-04 00:55:00
8:15 PM,89.2,68.9,51,29.93,10.0,SE,13.8,20.7,N/A,,Clear,130,2013-08-04 01:15:00
8:35 PM,88.2,68.5,52,29.93,10.0,SE,16.1,20.7,N/A,,Clear,130,2013-08-04 01:35:00
8:55 PM,87.3,70.0,56,29.94,10.0,SE,11.5,20.7,N/A,,Clear,130,2013-08-04 01:55:00
9:15 PM,86.4,70.3,59,29.95,10.0,SE,11.5,18.4,N/A,,Clear,140,2013-08-04 02:15:00
9:35 PM,86.0,70.9,60,29.96,10.0,SE,12.7,18.4,N/A,,Clear,130,2013-08-04 02:35:00
9:55 PM,85.3,71.4,63,29.97,10.0,SE,11.5,17.3,N/A,,Clear,140,2013-08-04 02:55:00
10:15 PM,84.9,71.6,64,29.98,10.0,SE,11.5,17.3,N/A,,Clear,140,2013-08-04 03:15:00
10:35 PM,84.6,71.1,64,29.99,10.0,SE,13.8,20.7,N/A,,Clear,130,2013-08-04 03:35:00
10:55 PM,84.0,72.5,68,30.00,10.0,SE,11.5,21.9,N/A,,Clear,140,2013-08-04 03:55:00
11:15 PM,83.7,72.9,70,30.01,10.0,SE,10.4,17.3,N/A,,Clear,140,2013-08-04 04:15:00
11:35 PM,83.5,73.0,71,30.01,10.0,SE,12.7,19.6,N/A,,Clear,140,2013-08-04 04:35:00
11:55 PM,83.5,73.2,71,30.01,10.0,SSE,10.4,18.4,N/A,,Clear,150,2013-08-04 04:55:00